createdAt,value
2019-04-23T00:01:07.583Z,10.07
2019-04-23T00:03:34.361Z,14.27
2019-04-23T00:06:15.543Z,9.43
2019-04-23T00:08:50.211Z,12.50
2019-04-23T00:11:15.698Z,10.53
2019-04-23T00:13:43.885Z,9.70
2019-04-23T00:16:21.931Z,11.33
2019-04-23T00:18:46.733Z,11.80
2019-04-23T00:21:40.528Z,10.70
2019-04-23T00:24:48.001Z,10.30
2019-04-23T00:27:18.786Z,10.27
2019-04-23T00:29:36.738Z,10.37
2019-04-23T00:32:10.437Z,9.60
2019-04-23T00:37:24.276Z,15.03
2019-04-23T00:39:51.445Z,10.83
2019-04-23T00:42:23.546Z,12.93
2019-04-23T00:44:54.423Z,17.13
2019-04-23T00:47:28.269Z,11.77
2019-04-23T00:50:00.005Z,11.63
2019-04-23T00:52:26.416Z,10.93
2019-04-23T00:55:07.638Z,13.60
2019-04-23T01:00:14.118Z,14.47
2019-04-23T01:02:37.311Z,11.47
2019-04-23T01:05:10.357Z,11.90
2019-04-23T01:07:40.414Z,12.23
2019-04-23T01:10:25.515Z,15.63
2019-04-23T01:12:51.569Z,19.60
2019-04-23T01:15:25.508Z,10.93
2019-04-23T01:18:02.315Z,8.63
2019-04-23T01:20:44.468Z,14.43
2019-04-23T01:22:52.852Z,17.17
2019-04-23T01:25:42.635Z,14.17
2019-04-23T01:33:37.958Z,15.83
2019-04-23T01:36:16.432Z,10.83
2019-04-23T01:38:40.468Z,10.70
2019-04-23T01:41:16.003Z,13.03
2019-04-23T01:43:41.027Z,12.93
2019-04-23T01:46:12.809Z,14.03
2019-04-23T01:48:51.999Z,11.83
2019-04-23T01:51:19.020Z,11.50
2019-04-23T01:53:54.966Z,11.70
2019-04-23T01:56:25.874Z,13.03
2019-04-23T01:59:00.274Z,14.33
2019-04-23T02:01:46.173Z,14.17
2019-04-23T02:04:03.207Z,14.90
2019-04-23T02:06:34.815Z,13.43
2019-04-23T02:09:10.995Z,12.97
2019-04-23T02:11:37.445Z,11.27
2019-04-23T02:14:09.669Z,13.57
2019-04-23T02:16:57.827Z,10.30
2019-04-23T02:19:16.777Z,10.67
2019-04-23T02:21:52.825Z,9.57
2019-04-23T02:24:27.795Z,17.37
2019-04-23T02:27:05.870Z,14.17
2019-04-23T02:29:51.503Z,9.53
2019-04-23T02:32:19.041Z,11.33
2019-04-23T02:34:57.851Z,13.70
2019-04-23T02:37:17.865Z,11.97
2019-04-23T02:39:55.451Z,11.07
2019-04-23T02:42:37.386Z,15.33
2019-04-23T02:50:12.057Z,14.30
2019-04-23T02:52:31.056Z,11.77
2019-04-23T02:57:29.356Z,9.63
2019-04-23T03:05:00.681Z,15.37
2019-04-23T03:10:16.308Z,10.27
2019-04-23T03:13:07.372Z,13.00
2019-04-23T03:18:44.518Z,14.30
2019-04-23T03:24:11.564Z,9.63
2019-04-23T03:29:16.274Z,10.93
2019-04-23T03:35:09.605Z,13.90
2019-04-23T03:37:11.088Z,11.07
2019-04-23T03:39:03.137Z,13.83
2019-04-23T03:41:47.993Z,8.47
2019-04-23T03:44:20.780Z,14.90
2019-04-23T03:49:21.816Z,14.43
2019-04-23T03:52:07.358Z,13.03
2019-04-23T04:02:20.745Z,19.17
2019-04-23T04:04:44.813Z,15.90
2019-04-23T04:09:47.775Z,14.83
2019-04-23T04:12:21.104Z,12.23
2019-04-23T04:14:59.113Z,14.00
2019-04-23T04:17:19.641Z,15.33
2019-04-23T04:19:56.199Z,14.70
2019-04-23T04:27:43.447Z,12.37
2019-04-23T04:30:01.599Z,17.53
2019-04-23T04:32:30.832Z,12.30
2019-04-23T04:40:20.780Z,16.30
2019-04-23T04:42:42.202Z,14.00
2019-04-23T04:45:28.187Z,14.90
2019-04-23T04:47:44.493Z,16.07
2019-04-23T04:50:35.613Z,16.20
2019-04-23T04:55:22.882Z,13.67
2019-04-23T05:00:34.864Z,17.03
2019-04-23T05:03:12.561Z,13.53
2019-04-23T05:06:01.754Z,13.70
2019-04-23T05:08:06.653Z,12.73
2019-04-23T05:13:28.356Z,12.33
2019-04-23T05:15:37.393Z,16.13
2019-04-23T05:18:49.431Z,14.43
2019-04-23T05:21:06.170Z,17.57
2019-04-23T05:23:54.467Z,13.53
2019-04-23T05:26:20.952Z,15.17
2019-04-23T05:31:23.666Z,10.50
2019-04-23T05:34:00.226Z,10.87
2019-04-23T05:36:43.633Z,15.17
2019-04-23T05:41:33.158Z,16.47
2019-04-23T05:44:05.185Z,17.93
2019-04-23T05:46:47.996Z,12.50
2019-04-23T05:49:07.653Z,11.37
2019-04-23T05:51:42.026Z,15.10
2019-04-23T05:54:14.005Z,15.83
2019-04-23T05:56:46.220Z,18.80
2019-04-23T05:59:17.808Z,18.50
2019-04-23T06:01:54.149Z,18.47
2019-04-23T06:09:25.300Z,15.43
2019-04-23T06:11:59.757Z,17.57
2019-04-23T06:14:32.903Z,15.40
2019-04-23T06:17:03.733Z,16.90
2019-04-23T06:19:24.596Z,15.23
2019-04-23T06:24:48.814Z,21.27
2019-04-23T06:27:13.402Z,21.67
2019-04-23T06:29:39.543Z,17.43
2019-04-23T06:32:12.999Z,16.47
2019-04-23T06:34:47.365Z,18.60
2019-04-23T06:37:18.403Z,17.77
2019-04-23T06:39:48.431Z,15.27
2019-04-23T06:42:19.387Z,16.13
2019-04-23T06:47:24.766Z,13.77
2019-04-23T06:52:25.420Z,19.93
2019-04-23T06:55:09.302Z,19.13
2019-04-23T06:57:33.325Z,19.23
2019-04-23T07:00:17.565Z,17.87
2019-04-23T07:02:44.404Z,19.33
2019-04-23T07:05:27.205Z,19.80
2019-04-23T07:07:55.219Z,19.73
2019-04-23T07:10:25.239Z,18.70
2019-04-23T07:12:57.667Z,15.17
2019-04-23T07:15:50.107Z,15.13
2019-04-23T07:17:55.547Z,19.53
2019-04-23T07:20:33.416Z,16.50
2019-04-23T07:23:04.977Z,17.30
2019-04-23T07:25:34.651Z,14.03
2019-04-23T07:28:14.960Z,13.07
2019-04-23T07:30:38.407Z,18.60
2019-04-23T07:33:16.722Z,14.73
2019-04-23T07:35:45.227Z,18.20
2019-04-23T07:38:42.158Z,17.63
2019-04-23T07:41:18.345Z,12.70
2019-04-23T07:44:14.209Z,17.03
2019-04-23T07:47:07.755Z,18.97
2019-04-23T07:49:23.761Z,17.07
2019-04-23T07:52:03.604Z,16.77
2019-04-23T07:57:12.279Z,17.43
2019-04-23T08:02:15.915Z,16.00
2019-04-23T08:05:06.300Z,20.87
2019-04-23T08:07:14.726Z,21.27
2019-04-23T08:09:47.873Z,18.30
2019-04-23T08:14:55.212Z,18.47
2019-04-23T08:17:25.839Z,14.93
2019-04-23T08:20:08.065Z,18.33
2019-04-23T08:22:28.594Z,20.73
2019-04-23T08:25:26.660Z,19.00
2019-04-23T08:27:57.489Z,13.33
2019-04-23T08:30:43.038Z,12.87
2019-04-23T08:33:23.364Z,21.73
2019-04-23T08:35:48.591Z,21.30
2019-04-23T08:38:18.602Z,14.73
2019-04-23T08:40:59.139Z,24.13
2019-04-23T08:43:49.317Z,19.10
2019-04-23T08:46:24.774Z,12.80
2019-04-23T08:49:00.717Z,21.50
2019-04-23T08:51:51.637Z,19.40
2019-04-23T08:54:30.159Z,15.70
2019-04-23T08:56:55.133Z,16.07
2019-04-23T08:59:33.135Z,19.53
2019-04-23T09:02:07.410Z,16.80
2019-04-23T09:04:32.489Z,22.00
2019-04-23T09:07:04.424Z,14.47
2019-04-23T09:09:34.690Z,18.73
2019-04-23T09:12:06.806Z,19.07
2019-04-23T09:14:42.259Z,16.00
2019-04-23T09:17:16.888Z,11.87
2019-04-23T09:19:53.369Z,22.47
2019-04-23T09:22:22.666Z,18.37
2019-04-23T09:24:47.076Z,22.27
2019-04-23T09:27:31.169Z,11.70
2019-04-23T09:38:16.518Z,18.90
2019-04-23T09:44:39.638Z,22.37
2019-04-23T09:46:49.531Z,17.50
2019-04-23T09:49:20.457Z,19.27
2019-04-23T09:51:58.744Z,19.82
2019-04-23T09:54:42.186Z,19.62
2019-04-23T09:57:04.599Z,19.98
2019-04-23T09:59:34.338Z,19.05
2019-04-23T10:01:49.925Z,15.15
2019-04-23T10:04:17.072Z,15.32
2019-04-23T10:06:38.711Z,14.53
2019-04-23T10:09:11.938Z,17.30
2019-04-23T10:11:43.128Z,21.65
2019-04-23T10:14:14.728Z,16.02
2019-04-23T10:16:45.294Z,15.50
2019-04-23T10:19:17.181Z,10.88
2019-04-23T10:21:49.142Z,16.67
2019-04-23T10:24:20.999Z,13.98
2019-04-23T10:26:52.268Z,21.60
2019-04-23T10:29:27.683Z,19.67
2019-04-23T10:31:59.683Z,18.15
2019-04-23T10:34:42.315Z,15.38
2019-04-23T10:37:02.563Z,19.60
2019-04-23T10:39:37.822Z,19.12
2019-04-23T10:42:07.797Z,14.40
2019-04-23T10:44:45.887Z,17.00
2019-04-23T10:48:03.739Z,13.50
2019-04-23T10:53:30.055Z,18.25
2019-04-23T10:56:00.930Z,15.88
2019-04-23T10:58:32.098Z,16.48
2019-04-23T11:01:05.102Z,17.50
2019-04-23T11:08:37.906Z,18.80
2019-04-23T11:11:16.679Z,11.43
2019-04-23T11:13:56.579Z,19.98
2019-04-23T11:16:52.281Z,17.12
2019-04-23T11:21:31.349Z,14.87
2019-04-23T11:23:59.542Z,19.10
2019-04-23T11:29:01.664Z,16.73
2019-04-23T11:34:30.341Z,15.20
2019-04-23T11:39:32.714Z,15.38
2019-04-23T11:42:05.273Z,18.90
2019-04-23T11:49:50.605Z,16.15
2019-04-23T11:52:00.143Z,15.68
2019-04-23T11:54:22.715Z,16.40
2019-04-23T11:59:40.768Z,17.30
2019-04-23T12:02:32.826Z,18.40
2019-04-23T12:05:26.812Z,17.00
2019-04-23T12:08:38.482Z,22.07
2019-04-23T12:13:49.210Z,14.40
2019-04-23T12:16:10.539Z,14.10
2019-04-23T12:18:38.744Z,19.30
2019-04-23T12:21:22.621Z,13.35
2019-04-23T12:26:29.814Z,21.02
2019-04-23T12:28:51.312Z,18.75
2019-04-23T12:31:24.648Z,14.98
2019-04-23T12:33:57.403Z,20.20
2019-04-23T12:39:33.044Z,17.27
2019-04-23T12:41:52.871Z,20.10
2019-04-23T12:44:25.378Z,19.23
2019-04-23T12:47:05.549Z,17.62
2019-04-23T12:49:53.401Z,16.93
2019-04-23T12:52:12.863Z,15.72
2019-04-23T12:59:44.607Z,16.35
2019-04-23T13:02:33.409Z,18.35
2019-04-23T13:07:29.132Z,19.82
2019-04-23T13:10:01.519Z,15.90
2019-04-23T13:12:37.776Z,17.65
2019-04-23T13:17:46.897Z,20.70
2019-04-23T13:22:43.078Z,21.00
2019-04-23T13:25:23.193Z,22.67
2019-04-23T13:27:58.481Z,16.90
2019-04-23T13:30:35.554Z,19.23
2019-04-23T13:33:02.643Z,18.37
2019-04-23T13:37:58.996Z,21.12
2019-04-23T13:40:39.520Z,20.83
2019-04-23T13:43:17.350Z,14.57
2019-04-23T13:48:10.682Z,16.90
2019-04-23T13:50:59.951Z,13.73
2019-04-23T13:55:42.064Z,15.50
2019-04-23T13:58:36.335Z,18.52
2019-04-23T14:08:50.144Z,17.07
2019-04-23T14:11:21.579Z,16.30
2019-04-23T14:16:34.084Z,13.30
2019-04-23T14:18:58.742Z,19.30
2019-04-23T14:21:24.823Z,17.07
2019-04-23T14:24:12.007Z,17.60
2019-04-23T14:26:32.629Z,18.70
2019-04-23T14:28:52.659Z,17.50
2019-04-23T14:31:30.295Z,16.20
2019-04-23T14:34:05.072Z,17.70
2019-04-23T14:39:06.073Z,20.27
2019-04-23T14:41:45.025Z,21.48
2019-04-23T14:46:53.031Z,15.72
2019-04-23T14:49:25.891Z,21.80
2019-04-23T14:51:58.899Z,12.88
2019-04-23T14:55:03.531Z,19.73
2019-04-23T14:57:07.962Z,18.73
2019-04-23T14:59:31.593Z,17.23
2019-04-23T15:02:13.913Z,15.40
2019-04-23T15:04:41.260Z,16.97
2019-04-23T15:07:15.597Z,21.87
2019-04-23T15:09:55.303Z,22.07
2019-04-23T15:14:59.949Z,16.37
2019-04-23T15:17:30.487Z,13.10
2019-04-23T15:20:03.289Z,18.80
2019-04-23T15:25:25.720Z,21.83
2019-04-23T15:27:28.604Z,19.97
2019-04-23T15:30:03.733Z,19.90
2019-04-23T15:32:54.584Z,16.32
2019-04-23T15:35:42.505Z,20.97
2019-04-23T15:40:22.916Z,19.52
2019-04-23T15:43:02.776Z,22.70
2019-04-23T15:45:28.250Z,22.03
2019-04-23T15:48:03.211Z,18.93
2019-04-23T15:53:01.282Z,20.90
2019-04-23T15:55:44.121Z,19.73
2019-04-23T16:00:42.282Z,16.03
2019-04-23T16:02:46.733Z,18.73
2019-04-23T16:05:19.279Z,17.97
2019-04-23T16:08:09.763Z,16.97
2019-04-23T16:10:54.612Z,20.80
2019-04-23T16:13:29.062Z,18.67
2019-04-23T16:15:59.642Z,18.40
2019-04-23T16:18:41.942Z,21.47
2019-04-23T16:21:20.376Z,20.70
2019-04-23T16:23:52.874Z,18.53
2019-04-23T16:26:24.074Z,21.07
2019-04-23T16:34:17.795Z,20.87
2019-04-23T16:36:35.872Z,22.77
2019-04-23T16:39:07.343Z,24.83
2019-04-23T16:41:40.466Z,20.13
2019-04-23T16:44:38.177Z,21.27
2019-04-23T16:47:03.797Z,19.73
2019-04-23T16:49:34.695Z,17.63
2019-04-23T16:52:09.617Z,21.90
2019-04-23T16:54:41.629Z,28.03
2019-04-23T16:57:24.320Z,17.80
2019-04-23T16:59:48.139Z,20.53
2019-04-23T17:02:19.804Z,20.87
2019-04-23T17:04:54.420Z,23.37
2019-04-23T17:07:12.064Z,25.60
2019-04-23T17:10:00.336Z,19.37
2019-04-23T17:12:17.624Z,22.03
2019-04-23T17:15:02.773Z,19.13
2019-04-23T17:17:25.122Z,22.63
2019-04-23T17:20:16.665Z,27.27
2019-04-23T17:22:33.935Z,25.87
2019-04-23T17:25:15.626Z,25.40
2019-04-23T17:27:45.029Z,19.90
2019-04-23T17:30:11.915Z,24.63
2019-04-23T17:33:05.826Z,18.20
2019-04-23T17:35:46.204Z,25.70
2019-04-23T17:38:21.000Z,18.57
2019-04-23T17:41:13.666Z,24.83
2019-04-23T17:43:51.003Z,20.97
2019-04-23T17:46:14.325Z,21.20
2019-04-23T17:48:50.382Z,22.93
2019-04-23T17:51:16.549Z,18.70
2019-04-23T17:53:58.742Z,23.23
2019-04-23T17:59:00.563Z,19.87
2019-04-23T18:01:24.427Z,21.43
2019-04-23T18:06:51.576Z,21.10
2019-04-23T18:09:16.585Z,21.57
2019-04-23T18:11:35.666Z,22.73
2019-04-23T18:14:06.959Z,18.80
2019-04-23T18:16:51.970Z,20.27
2019-04-23T18:25:12.607Z,27.70
2019-04-23T18:30:40.993Z,20.63
2019-04-23T18:33:43.893Z,19.83
2019-04-23T18:35:29.635Z,21.13
2019-04-23T18:38:14.880Z,20.83
2019-04-23T18:40:59.223Z,17.07
2019-04-23T18:45:55.599Z,21.67
2019-04-23T18:51:41.735Z,16.17
2019-04-23T18:54:08.433Z,27.93
2019-04-23T18:57:04.535Z,20.37
2019-04-23T19:02:37.849Z,20.60
2019-04-23T19:07:43.102Z,20.87
2019-04-23T19:10:29.250Z,20.47
2019-04-23T19:13:11.385Z,28.80
2019-04-23T19:15:42.294Z,23.17
2019-04-23T19:18:14.233Z,25.33
2019-04-23T19:23:25.617Z,19.63
2019-04-23T19:25:50.198Z,26.77
2019-04-23T19:28:41.397Z,26.07
2019-04-23T19:34:14.447Z,24.43
2019-04-23T19:39:36.672Z,28.73
2019-04-23T19:42:29.117Z,25.57
2019-04-23T19:44:45.877Z,27.10
2019-04-23T19:47:23.351Z,28.10
2019-04-23T19:50:04.766Z,32.60
2019-04-23T19:52:30.770Z,28.50
2019-04-23T19:55:00.114Z,31.17
2019-04-23T19:57:33.986Z,27.37
2019-04-23T19:59:55.290Z,29.73
2019-04-23T20:05:05.545Z,32.67
2019-04-23T20:10:07.272Z,28.60
2019-04-23T20:12:40.030Z,28.27
2019-04-23T20:15:08.291Z,33.07
2019-04-23T20:17:52.795Z,26.37
2019-04-23T20:20:19.383Z,34.07
2019-04-23T20:28:09.612Z,26.37
2019-04-23T20:32:28.678Z,29.97
2019-04-23T20:36:23.718Z,34.73
2019-04-23T20:41:39.722Z,30.83
2019-04-23T20:44:01.725Z,28.53
2019-04-23T20:46:40.165Z,37.97
2019-04-23T20:49:08.083Z,29.40
2019-04-23T20:51:41.711Z,28.60
2019-04-23T20:54:12.350Z,29.07
2019-04-23T20:56:52.347Z,36.50
2019-04-23T20:59:11.230Z,24.97
2019-04-23T21:02:13.611Z,29.77
2019-04-23T21:04:49.540Z,34.73
2019-04-23T21:18:06.511Z,31.30
2019-04-23T21:20:36.843Z,29.83
2019-04-23T21:23:08.994Z,32.77
2019-04-23T21:39:23.075Z,31.87
2019-04-23T21:42:14.486Z,37.10
2019-04-23T21:44:47.538Z,25.00
2019-04-23T21:47:15.323Z,26.50
2019-04-23T21:50:11.795Z,28.80
2019-04-23T21:52:30.384Z,26.23
2019-04-23T21:54:57.366Z,30.23
2019-04-23T21:58:17.185Z,28.47
2019-04-23T22:00:51.940Z,33.90
2019-04-23T22:03:15.394Z,32.40
2019-04-23T22:05:55.581Z,34.93
2019-04-23T22:08:20.502Z,30.27
2019-04-23T22:11:08.808Z,30.53
2019-04-23T22:13:47.682Z,27.17
2019-04-23T22:18:55.262Z,32.27
2019-04-23T22:21:15.932Z,33.80
2019-04-23T22:23:53.029Z,33.83
2019-04-23T22:26:28.518Z,36.63
2019-04-23T22:34:08.766Z,38.33
2019-04-23T22:36:43.165Z,30.47
2019-04-23T22:39:11.548Z,34.43
2019-04-23T22:41:41.677Z,31.10
2019-04-23T22:44:17.971Z,32.13
2019-04-23T22:46:53.406Z,37.77
2019-04-23T22:49:40.015Z,30.97
2019-04-23T22:54:23.608Z,37.97
2019-04-23T22:57:01.287Z,35.77
2019-04-23T22:59:34.254Z,39.17
2019-04-23T23:02:25.500Z,36.20
2019-04-23T23:05:00.030Z,38.70
2019-04-23T23:07:29.002Z,38.43
2019-04-23T23:10:06.854Z,33.37
2019-04-23T23:12:43.655Z,37.07
2019-04-23T23:15:08.138Z,41.97
2019-04-23T23:17:42.905Z,36.53
2019-04-23T23:20:17.231Z,38.13
2019-04-23T23:22:51.424Z,34.80
2019-04-23T23:27:51.812Z,30.87
2019-04-23T23:30:19.840Z,34.80
2019-04-23T23:38:03.321Z,39.03
2019-04-23T23:40:25.582Z,36.07
2019-04-23T23:43:14.571Z,39.17
2019-04-23T23:50:44.985Z,33.17
2019-04-23T23:53:15.606Z,33.13
2019-04-23T23:55:48.684Z,36.80
